createdAt,value
2023-02-05T00:02:13.727Z,66.10
2023-02-05T00:04:42.244Z,66.10
2023-02-05T00:07:10.649Z,66.00
2023-02-05T00:09:40.966Z,67.70
2023-02-05T00:12:10.861Z,67.80
2023-02-05T00:14:39.310Z,66.50
2023-02-05T00:17:07.834Z,65.50
2023-02-05T00:19:36.266Z,65.60
2023-02-05T00:22:04.839Z,67.00
2023-02-05T00:24:33.357Z,70.00
2023-02-05T00:27:01.793Z,68.70
2023-02-05T00:29:31.594Z,66.00
2023-02-05T00:32:00.113Z,66.70
2023-02-05T00:34:28.687Z,67.80
2023-02-05T00:36:57.136Z,67.20
2023-02-05T00:39:25.557Z,66.00
2023-02-05T00:41:54.026Z,65.30
2023-02-05T00:44:22.413Z,70.80
2023-02-05T00:46:52.183Z,67.60
2023-02-05T00:49:20.732Z,66.20
2023-02-05T00:51:49.135Z,65.70
2023-02-05T00:54:17.541Z,66.10
2023-02-05T00:56:45.962Z,67.50
2023-02-05T00:59:14.380Z,68.70
2023-02-05T01:01:42.862Z,69.10
2023-02-05T01:04:12.764Z,69.40
2023-02-05T01:06:41.185Z,69.70
2023-02-05T01:09:09.617Z,71.70
2023-02-05T01:11:38.118Z,71.20
2023-02-05T01:14:06.586Z,71.00
2023-02-05T01:16:35.016Z,71.10
2023-02-05T01:19:03.493Z,71.10
2023-02-05T01:21:33.252Z,71.00
2023-02-05T01:24:01.728Z,71.30
2023-02-05T01:26:30.206Z,71.40
2023-02-05T01:28:58.607Z,72.20
2023-02-05T01:31:28.262Z,72.70
2023-02-05T01:33:56.879Z,72.90
2023-02-05T01:36:25.337Z,72.90
2023-02-05T01:38:55.167Z,73.50
2023-02-05T01:41:23.661Z,74.10
2023-02-05T01:44:09.080Z,74.10
2023-02-05T01:46:38.695Z,73.80
2023-02-05T01:49:08.907Z,73.60
2023-02-05T01:51:39.111Z,73.80
2023-02-05T01:54:09.473Z,73.80
2023-02-05T01:56:40.300Z,74.20
2023-02-05T01:59:10.818Z,78.70
2023-02-05T02:01:41.040Z,76.60
2023-02-05T02:04:10.133Z,75.00
2023-02-05T02:06:39.086Z,74.80
2023-02-05T02:09:09.447Z,74.90
2023-02-05T02:11:40.393Z,75.90
2023-02-05T02:14:10.069Z,75.10
2023-02-05T02:16:39.728Z,74.50
2023-02-05T02:19:23.843Z,75.90
2023-02-05T02:22:22.839Z,75.60
2023-02-05T02:25:06.544Z,75.60
2023-02-05T02:27:45.903Z,75.30
2023-02-05T02:30:20.273Z,75.70
2023-02-05T02:32:53.851Z,78.50
2023-02-05T02:35:26.759Z,79.80
2023-02-05T02:38:02.472Z,77.00
2023-02-05T02:40:34.132Z,73.80
2023-02-05T02:43:07.982Z,73.40
2023-02-05T02:45:38.080Z,73.70
2023-02-05T02:48:08.199Z,74.30
2023-02-05T02:50:39.003Z,74.80
2023-02-05T02:53:14.127Z,76.40
2023-02-05T02:55:43.858Z,75.70
2023-02-05T02:58:17.810Z,74.80
2023-02-05T03:00:47.371Z,74.80
2023-02-05T03:03:18.805Z,75.60
2023-02-05T03:05:49.697Z,76.20
2023-02-05T03:08:22.842Z,77.00
2023-02-05T03:10:56.200Z,77.30
2023-02-05T03:13:26.194Z,78.40
2023-02-05T03:15:54.778Z,78.30
2023-02-05T03:18:23.450Z,78.00
2023-02-05T03:20:53.999Z,78.10
2023-02-05T03:23:22.498Z,77.90
2023-02-05T03:25:50.988Z,77.70
2023-02-05T03:28:19.444Z,77.50
2023-02-05T03:30:58.310Z,77.40
2023-02-05T03:33:42.631Z,78.10
2023-02-05T03:36:18.023Z,78.20
2023-02-05T03:39:04.811Z,78.40
2023-02-05T03:41:55.272Z,78.60
2023-02-05T03:44:41.176Z,78.80
2023-02-05T03:47:16.453Z,78.90
2023-02-05T03:49:52.841Z,79.00
2023-02-05T03:52:29.889Z,79.10
2023-02-05T03:55:04.754Z,79.20
2023-02-05T03:57:37.896Z,80.10
2023-02-05T04:00:07.088Z,80.00
2023-02-05T04:02:36.994Z,78.70
2023-02-05T04:05:05.795Z,78.20
2023-02-05T04:07:34.228Z,78.40
2023-02-05T04:10:02.678Z,79.20
2023-02-05T04:12:31.150Z,78.60
2023-02-05T04:14:59.589Z,78.00
2023-02-05T04:17:28.132Z,77.70
2023-02-05T04:19:57.913Z,78.00
2023-02-05T04:22:26.336Z,79.50
2023-02-05T04:24:54.826Z,80.10
2023-02-05T04:27:23.259Z,80.10
2023-02-05T04:29:51.727Z,80.50
2023-02-05T04:32:20.235Z,81.00
2023-02-05T04:34:48.647Z,80.80
2023-02-05T04:37:18.419Z,80.30
2023-02-05T04:39:48.397Z,80.00
2023-02-05T04:42:16.877Z,80.20
2023-02-05T04:44:45.337Z,80.50
2023-02-05T04:47:14.108Z,80.60
2023-02-05T04:49:42.640Z,81.30
2023-02-05T04:52:11.034Z,80.50
2023-02-05T04:54:40.932Z,80.70
2023-02-05T04:57:09.514Z,80.80
2023-02-05T04:59:38.149Z,81.60
2023-02-05T05:02:06.574Z,82.50
2023-02-05T05:04:35.174Z,80.90
2023-02-05T05:07:03.597Z,79.80
2023-02-05T05:09:32.093Z,82.40
2023-02-05T05:12:01.953Z,80.80
2023-02-05T05:14:30.763Z,80.40
2023-02-05T05:16:59.175Z,79.20
2023-02-05T05:19:27.636Z,78.70
2023-02-05T05:21:56.025Z,78.40
2023-02-05T05:24:24.446Z,78.70
2023-02-05T05:26:52.901Z,78.90
2023-02-05T05:29:22.699Z,79.30
2023-02-05T05:31:53.777Z,79.80
2023-02-05T05:34:22.251Z,79.80
2023-02-05T05:36:50.657Z,78.60
2023-02-05T05:39:36.795Z,78.10
2023-02-05T05:42:23.252Z,76.80
2023-02-05T05:44:53.118Z,76.40
2023-02-05T05:47:22.289Z,76.30
2023-02-05T05:49:50.702Z,75.90
2023-02-05T05:52:19.076Z,75.60
2023-02-05T05:54:47.488Z,75.10
2023-02-05T05:57:15.949Z,75.10
2023-02-05T05:59:44.365Z,74.00
2023-02-05T06:02:14.287Z,73.80
2023-02-05T06:04:44.018Z,73.90
2023-02-05T06:07:12.445Z,73.70
2023-02-05T06:09:40.883Z,73.40
2023-02-05T06:12:11.552Z,73.10
2023-02-05T06:14:40.164Z,72.60
2023-02-05T06:17:08.567Z,72.80
2023-02-05T06:19:38.398Z,72.50
2023-02-05T06:22:06.836Z,73.00
2023-02-05T06:24:35.234Z,72.20
2023-02-05T06:27:03.979Z,72.10
2023-02-05T06:29:32.396Z,72.60
2023-02-05T06:32:00.871Z,72.10
2023-02-05T06:34:29.456Z,72.40
2023-02-05T06:36:59.272Z,74.80
2023-02-05T06:39:27.821Z,76.30
2023-02-05T06:41:56.266Z,75.90
2023-02-05T06:44:25.034Z,74.90
2023-02-05T06:46:53.444Z,73.80
2023-02-05T06:49:22.209Z,73.40
2023-02-05T06:51:50.621Z,71.80
2023-02-05T06:54:20.699Z,72.40
2023-02-05T06:56:49.241Z,75.70
2023-02-05T06:59:17.660Z,80.60
2023-02-05T07:01:46.230Z,82.00
2023-02-05T07:04:14.760Z,82.30
2023-02-05T07:06:43.277Z,87.60
2023-02-05T07:09:11.772Z,86.90
2023-02-05T07:11:41.556Z,86.50
2023-02-05T07:14:09.976Z,87.50
2023-02-05T07:16:38.377Z,88.50
2023-02-05T07:19:06.940Z,89.50
2023-02-05T07:21:35.415Z,90.20
2023-02-05T07:24:03.852Z,90.60
2023-02-05T07:26:32.351Z,91.00
2023-02-05T07:29:02.152Z,91.20
2023-02-05T07:31:30.730Z,91.30
2023-02-05T07:33:59.301Z,91.50
2023-02-05T07:36:27.726Z,92.30
2023-02-05T07:38:56.136Z,92.80
2023-02-05T07:41:26.791Z,93.00
2023-02-05T07:43:55.655Z,93.40
2023-02-05T07:46:25.583Z,93.90
2023-02-05T07:48:54.002Z,94.20
2023-02-05T07:51:24.128Z,94.00
2023-02-05T07:53:52.771Z,94.30
2023-02-05T07:56:21.749Z,94.50
2023-02-05T07:58:50.578Z,94.90
2023-02-05T08:01:19.250Z,95.40
2023-02-05T08:03:49.087Z,95.60
2023-02-05T08:06:17.905Z,95.80
2023-02-05T08:08:46.417Z,96.20
2023-02-05T08:11:17.069Z,96.40
2023-02-05T08:13:46.179Z,96.60
2023-02-05T08:16:16.098Z,96.60
2023-02-05T08:18:44.793Z,96.50
2023-02-05T08:21:14.594Z,96.50
2023-02-05T08:23:43.092Z,96.30
2023-02-05T08:26:12.046Z,96.20
2023-02-05T08:28:40.469Z,96.10
2023-02-05T08:31:13.324Z,96.20
2023-02-05T08:33:41.911Z,96.20
2023-02-05T08:36:11.340Z,96.30
2023-02-05T08:38:41.145Z,96.30
2023-02-05T08:41:12.575Z,96.40
2023-02-05T08:43:42.705Z,96.90
2023-02-05T08:46:12.433Z,96.80
2023-02-05T08:48:40.920Z,97.00
2023-02-05T08:51:11.130Z,97.30
2023-02-05T08:53:41.312Z,97.20
2023-02-05T08:56:11.549Z,97.10
2023-02-05T08:58:40.198Z,97.10
2023-02-05T09:01:10.519Z,96.60
2023-02-05T09:03:39.054Z,96.70
2023-02-05T09:06:08.478Z,95.90
2023-02-05T09:08:37.368Z,95.30
2023-02-05T09:11:07.826Z,95.00
2023-02-05T09:13:36.250Z,94.70
2023-02-05T09:16:04.868Z,94.90
2023-02-05T09:18:33.352Z,94.80
2023-02-05T09:21:01.865Z,94.80
2023-02-05T09:23:30.461Z,95.00
2023-02-05T09:25:59.863Z,95.40
2023-02-05T09:28:29.763Z,95.40
2023-02-05T09:30:58.243Z,95.50
2023-02-05T09:33:26.741Z,95.40
2023-02-05T09:35:55.290Z,95.40
2023-02-05T09:38:23.677Z,95.00
2023-02-05T09:40:59.207Z,94.30
2023-02-05T09:43:47.023Z,94.90
2023-02-05T09:46:18.883Z,95.00
2023-02-05T09:48:57.713Z,94.40
2023-02-05T09:51:33.835Z,94.80
2023-02-05T09:54:07.276Z,95.00
2023-02-05T09:56:37.754Z,95.30
2023-02-05T09:59:09.673Z,95.40
2023-02-05T10:01:43.684Z,94.90
2023-02-05T10:04:12.516Z,93.50
2023-02-05T10:07:14.765Z,93.90
2023-02-05T10:10:04.959Z,92.80
2023-02-05T10:12:42.442Z,92.90
2023-02-05T10:15:23.389Z,93.00
2023-02-05T10:17:59.268Z,93.10
2023-02-05T10:20:46.874Z,93.50
2023-02-05T10:23:19.497Z,93.00
2023-02-05T10:25:58.853Z,92.40
2023-02-05T10:28:41.172Z,92.10
2023-02-05T10:31:19.233Z,92.60
2023-02-05T10:33:49.802Z,92.70
2023-02-05T10:36:22.843Z,92.70
2023-02-05T10:38:53.265Z,93.10
2023-02-05T10:41:30.937Z,92.20
2023-02-05T10:44:05.041Z,91.20
2023-02-05T10:46:36.652Z,91.10
2023-02-05T10:49:09.182Z,90.50
2023-02-05T10:51:41.826Z,90.60
2023-02-05T10:54:19.930Z,90.10
2023-02-05T10:56:49.044Z,90.00
2023-02-05T10:59:22.983Z,90.40
2023-02-05T11:01:53.166Z,90.30
2023-02-05T11:04:35.309Z,90.00
2023-02-05T11:07:06.366Z,90.00
2023-02-05T11:09:36.146Z,90.30
2023-02-05T11:12:06.447Z,90.00
2023-02-05T11:14:36.640Z,89.60
2023-02-05T11:17:10.543Z,88.50
2023-02-05T11:19:39.524Z,88.30
2023-02-05T11:22:07.921Z,87.70
2023-02-05T11:24:39.407Z,86.60
2023-02-05T11:27:32.862Z,85.90
2023-02-05T11:30:37.686Z,86.10
2023-02-05T11:33:25.467Z,84.70
2023-02-05T11:35:56.713Z,84.00
2023-02-05T11:38:34.495Z,84.40
2023-02-05T11:41:05.155Z,85.70
2023-02-05T11:43:35.648Z,84.60
2023-02-05T11:46:05.467Z,85.00
2023-02-05T11:48:40.016Z,84.40
2023-02-05T11:51:10.336Z,83.40
2023-02-05T11:53:40.050Z,85.60
2023-02-05T11:56:12.081Z,84.80
2023-02-05T11:58:40.519Z,84.70
2023-02-05T12:01:25.226Z,84.20
2023-02-05T12:04:00.876Z,80.40
2023-02-05T12:06:33.408Z,80.90
2023-02-05T12:09:02.051Z,80.40
2023-02-05T12:12:03.140Z,81.30
2023-02-05T12:14:41.733Z,80.80
2023-02-05T12:17:28.164Z,80.50
2023-02-05T12:20:03.221Z,80.10
2023-02-05T12:22:53.277Z,79.50
2023-02-05T12:25:25.869Z,78.30
2023-02-05T12:28:16.536Z,77.20
2023-02-05T12:30:58.030Z,76.20
2023-02-05T12:33:39.066Z,75.20
2023-02-05T12:36:24.009Z,77.20
2023-02-05T12:39:01.878Z,76.50
2023-02-05T12:41:35.394Z,76.20
2023-02-05T12:44:11.237Z,77.20
2023-02-05T12:46:47.795Z,74.40
2023-02-05T12:49:30.879Z,74.60
2023-02-05T12:52:11.478Z,71.90
2023-02-05T12:54:49.892Z,70.60
2023-02-05T12:57:21.121Z,70.60
2023-02-05T12:59:52.980Z,71.80
2023-02-05T13:02:30.276Z,73.90
2023-02-05T13:05:08.986Z,75.50
2023-02-05T13:07:42.001Z,72.20
2023-02-05T13:10:17.557Z,71.90
2023-02-05T13:12:49.677Z,72.60
2023-02-05T13:15:20.988Z,72.70
2023-02-05T13:17:59.264Z,73.60
2023-02-05T13:20:45.704Z,74.10
2023-02-05T13:23:33.969Z,74.30
2023-02-05T13:26:21.750Z,75.00
2023-02-05T13:28:53.132Z,74.30
2023-02-05T13:31:25.788Z,73.50
2023-02-05T13:33:55.664Z,75.50
2023-02-05T13:36:40.049Z,76.30
2023-02-05T13:39:26.414Z,75.20
2023-02-05T13:42:08.682Z,73.70
2023-02-05T13:45:05.647Z,77.10
2023-02-05T13:47:51.017Z,90.10
2023-02-05T13:51:00.212Z,89.00
2023-02-05T13:53:39.282Z,91.90
2023-02-05T13:56:36.583Z,92.60
2023-02-05T13:59:06.090Z,67.80
2023-02-05T14:01:40.100Z,65.10
2023-02-05T14:04:10.028Z,67.10
2023-02-05T14:06:39.656Z,67.00
2023-02-05T14:09:10.057Z,67.10
2023-02-05T14:11:50.944Z,67.00
2023-02-05T14:14:28.005Z,69.20
2023-02-05T14:16:57.382Z,80.70
2023-02-05T14:19:28.617Z,94.70
2023-02-05T14:22:08.251Z,94.80
2023-02-05T14:24:47.979Z,89.20
2023-02-05T14:27:50.532Z,77.80
2023-02-05T14:30:49.767Z,63.60
2023-02-05T14:33:38.420Z,59.20
2023-02-05T14:36:33.133Z,59.70
2023-02-05T14:39:04.387Z,59.80
2023-02-05T14:41:47.020Z,61.40
2023-02-05T14:44:24.913Z,63.00
2023-02-05T14:47:00.989Z,62.90
2023-02-05T14:49:31.902Z,65.10
2023-02-05T14:52:01.397Z,64.80
2023-02-05T14:54:32.316Z,66.10
2023-02-05T14:57:13.176Z,66.40
2023-02-05T14:59:45.639Z,65.20
2023-02-05T15:02:51.370Z,64.90
2023-02-05T15:05:22.355Z,64.90
2023-02-05T15:07:53.355Z,65.30
2023-02-05T15:10:24.818Z,65.80
2023-02-05T15:12:59.355Z,66.40
2023-02-05T15:15:33.348Z,66.70
2023-02-05T15:18:07.575Z,66.80
2023-02-05T15:20:40.112Z,66.70
2023-02-05T15:23:24.118Z,67.30
2023-02-05T15:25:56.847Z,67.10
2023-02-05T15:28:34.049Z,67.20
2023-02-05T15:31:16.342Z,67.60
2023-02-05T15:33:50.371Z,67.20
2023-02-05T15:36:29.432Z,67.40
2023-02-05T15:39:06.928Z,69.10
2023-02-05T15:41:36.681Z,70.60
2023-02-05T15:44:05.619Z,72.20
2023-02-05T15:46:35.491Z,73.10
2023-02-05T15:49:06.690Z,73.20
2023-02-05T15:51:36.904Z,73.20
2023-02-05T15:54:06.478Z,74.00
2023-02-05T15:56:37.339Z,74.70
2023-02-05T15:59:07.635Z,75.20
2023-02-05T16:01:39.923Z,75.60
2023-02-05T16:04:18.851Z,75.80
2023-02-05T16:06:47.591Z,76.20
2023-02-05T16:09:18.831Z,76.40
2023-02-05T16:11:48.153Z,76.70
2023-02-05T16:14:18.368Z,77.20
2023-02-05T16:17:02.486Z,78.10
2023-02-05T16:19:34.315Z,78.40
2023-02-05T16:22:05.087Z,78.60
2023-02-05T16:24:35.484Z,79.00
2023-02-05T16:27:08.068Z,80.30
2023-02-05T16:29:47.643Z,81.40
2023-02-05T16:32:22.658Z,82.20
2023-02-05T16:34:51.317Z,82.20
2023-02-05T16:37:20.320Z,82.20
2023-02-05T16:39:54.174Z,82.70
2023-02-05T16:42:35.127Z,83.30
2023-02-05T16:45:21.211Z,84.10
2023-02-05T16:48:24.077Z,84.10
2023-02-05T16:50:53.621Z,83.70
2023-02-05T16:53:26.431Z,84.10
2023-02-05T16:55:59.041Z,84.80
2023-02-05T16:58:29.382Z,85.00
2023-02-05T17:00:59.474Z,85.30
2023-02-05T17:03:32.469Z,85.40
2023-02-05T17:06:03.378Z,86.00
2023-02-05T17:08:34.034Z,86.60
2023-02-05T17:11:04.013Z,87.80
2023-02-05T17:13:39.770Z,88.60
2023-02-05T17:16:25.770Z,88.60
2023-02-05T17:18:57.382Z,88.30
2023-02-05T17:21:28.309Z,88.10
2023-02-05T17:23:59.458Z,88.60
2023-02-05T17:26:30.891Z,89.10
2023-02-05T17:29:01.208Z,89.30
2023-02-05T17:31:30.176Z,89.00
2023-02-05T17:34:00.252Z,88.80
2023-02-05T17:36:28.806Z,89.20
2023-02-05T17:38:59.787Z,89.60
2023-02-05T17:41:47.604Z,89.90
2023-02-05T17:44:17.273Z,90.00
2023-02-05T17:46:46.539Z,90.30
2023-02-05T17:49:16.415Z,90.30
2023-02-05T17:51:45.000Z,90.40
2023-02-05T17:54:14.908Z,90.30
2023-02-05T17:56:44.676Z,90.40
2023-02-05T17:59:13.896Z,90.40
2023-02-05T18:01:42.477Z,90.40
2023-02-05T18:04:11.904Z,90.50
2023-02-05T18:06:42.704Z,90.60
2023-02-05T18:09:12.394Z,90.80
2023-02-05T18:11:42.833Z,91.10
2023-02-05T18:14:12.568Z,91.20
2023-02-05T18:16:41.361Z,91.40
2023-02-05T18:19:10.055Z,91.50
2023-02-05T18:21:38.620Z,91.60
2023-02-05T18:24:08.744Z,91.70
2023-02-05T18:26:37.317Z,91.90
2023-02-05T18:29:05.794Z,91.90
2023-02-05T18:31:35.450Z,92.10
2023-02-05T18:34:03.962Z,91.90
2023-02-05T18:36:32.444Z,93.00
2023-02-05T18:39:00.944Z,93.20
2023-02-05T18:41:31.637Z,93.60
2023-02-05T18:44:00.512Z,93.30
2023-02-05T18:46:29.349Z,93.00
2023-02-05T18:48:57.832Z,93.00
2023-02-05T18:51:26.300Z,93.00
2023-02-05T18:53:55.092Z,93.10
2023-02-05T18:56:24.909Z,93.00
2023-02-05T18:58:56.417Z,93.00
2023-02-05T19:01:24.930Z,92.90
2023-02-05T19:03:54.624Z,92.80
2023-02-05T19:06:23.378Z,92.70
2023-02-05T19:08:51.968Z,92.60
2023-02-05T19:11:23.986Z,92.80
2023-02-05T19:13:58.116Z,92.90
2023-02-05T19:16:27.279Z,93.00
2023-02-05T19:18:55.904Z,92.90
2023-02-05T19:21:25.106Z,92.70
2023-02-05T19:23:55.200Z,93.10
2023-02-05T19:26:25.880Z,92.70
2023-02-05T19:28:56.354Z,92.70
2023-02-05T19:31:28.233Z,92.80
2023-02-05T19:33:57.024Z,93.00
2023-02-05T19:36:26.255Z,93.20
2023-02-05T19:38:55.127Z,93.10
2023-02-05T19:41:26.473Z,92.90
2023-02-05T19:43:56.615Z,92.80
2023-02-05T19:46:27.869Z,92.90
2023-02-05T19:48:57.864Z,93.00
2023-02-05T19:51:26.338Z,93.00
2023-02-05T19:53:57.675Z,93.10
2023-02-05T19:56:27.049Z,93.10
2023-02-05T19:58:57.043Z,93.00
2023-02-05T20:01:28.359Z,92.90
2023-02-05T20:03:58.319Z,92.90
2023-02-05T20:06:28.444Z,92.90
2023-02-05T20:08:57.313Z,92.90
2023-02-05T20:11:25.754Z,92.90
2023-02-05T20:13:54.507Z,93.00
2023-02-05T20:16:24.319Z,93.10
2023-02-05T20:18:56.721Z,93.10
2023-02-05T20:21:26.146Z,93.20
2023-02-05T20:23:55.401Z,93.30
2023-02-05T20:26:24.661Z,93.40
2023-02-05T20:29:11.982Z,93.60
2023-02-05T20:31:43.018Z,93.60
2023-02-05T20:34:18.214Z,93.50
2023-02-05T20:36:47.613Z,93.50
2023-02-05T20:39:17.187Z,93.50
2023-02-05T20:41:46.048Z,93.60
2023-02-05T20:44:14.542Z,93.60
2023-02-05T20:46:43.178Z,93.70
2023-02-05T20:49:13.183Z,93.70
2023-02-05T20:51:44.946Z,93.70
2023-02-05T20:54:13.733Z,93.90
2023-02-05T20:56:42.537Z,93.90
2023-02-05T20:59:12.621Z,93.90
2023-02-05T21:01:41.991Z,94.10
2023-02-05T21:04:12.908Z,94.10
2023-02-05T21:06:42.045Z,94.20
2023-02-05T21:09:11.084Z,94.20
2023-02-05T21:11:40.089Z,94.40
2023-02-05T21:14:09.151Z,94.40
2023-02-05T21:16:38.104Z,94.50
2023-02-05T21:19:07.949Z,94.70
2023-02-05T21:21:38.578Z,95.20
2023-02-05T21:24:09.348Z,95.30
2023-02-05T21:26:39.434Z,95.40
2023-02-05T21:29:10.067Z,95.70
2023-02-05T21:31:40.377Z,95.80
2023-02-05T21:34:10.578Z,95.90
2023-02-05T21:36:40.370Z,96.30
2023-02-05T21:39:09.038Z,96.30
2023-02-05T21:41:37.457Z,96.40
2023-02-05T21:44:06.068Z,96.40
2023-02-05T21:46:34.925Z,96.30
2023-02-05T21:49:04.069Z,96.30
2023-02-05T21:51:34.097Z,96.30
2023-02-05T21:54:06.098Z,96.30
2023-02-05T21:56:37.090Z,96.30
2023-02-05T21:59:05.727Z,96.30
2023-02-05T22:01:39.803Z,96.20
2023-02-05T22:04:09.995Z,96.30
2023-02-05T22:06:38.908Z,96.40
2023-02-05T22:09:10.261Z,96.40
2023-02-05T22:11:40.469Z,96.40
2023-02-05T22:14:09.303Z,96.50
2023-02-05T22:16:38.742Z,96.50
2023-02-05T22:19:08.098Z,96.60
2023-02-05T22:21:37.958Z,99.90
2023-02-05T22:24:09.239Z,99.90
2023-02-05T22:26:39.717Z,99.90
2023-02-05T22:29:09.712Z,99.90
2023-02-05T22:31:38.292Z,99.90
2023-02-05T22:34:07.020Z,99.90
2023-02-05T22:36:36.604Z,99.90
2023-02-05T22:39:06.212Z,99.90
2023-02-05T22:41:37.144Z,99.90
2023-02-05T22:44:06.610Z,99.60
2023-02-05T22:46:37.081Z,98.30
2023-02-05T22:49:06.133Z,97.60
2023-02-05T22:51:36.436Z,96.90
2023-02-05T22:54:05.196Z,96.60
2023-02-05T22:56:35.507Z,96.50
2023-02-05T22:59:03.997Z,96.40
2023-02-05T23:01:34.180Z,96.50
2023-02-05T23:04:04.684Z,96.70
2023-02-05T23:06:34.816Z,96.70
2023-02-05T23:09:04.997Z,96.90
2023-02-05T23:11:35.822Z,97.00
2023-02-05T23:14:06.402Z,97.10
2023-02-05T23:16:36.994Z,97.10
2023-02-05T23:19:08.151Z,97.20
2023-02-05T23:21:37.703Z,97.20
2023-02-05T23:24:06.757Z,97.20
2023-02-05T23:26:40.026Z,97.30
2023-02-05T23:29:09.125Z,97.40
2023-02-05T23:31:37.719Z,97.50
2023-02-05T23:34:06.241Z,97.40
2023-02-05T23:36:34.781Z,97.30
2023-02-05T23:39:03.312Z,97.20
2023-02-05T23:41:37.610Z,97.00
2023-02-05T23:44:09.305Z,97.00
2023-02-05T23:46:38.090Z,97.30
2023-02-05T23:49:07.043Z,96.80
2023-02-05T23:51:35.864Z,96.90
2023-02-05T23:54:04.886Z,96.90
2023-02-05T23:56:33.553Z,96.80
2023-02-05T23:59:02.307Z,96.90
